Terminal Aerodrome Forecast
Issued by NWS

Home | Current Version | Previous Version | Graphics & Text | Print | Product List | Glossary On
Versions: 1 2 3 4 5 6 7 8 9 10 11 12 13 14 15 16
000
FTUS43 KGRB 261145
TAFCWA
TAF
KCWA 261145Z 2612/2712 19007KT 6SM -SHRA BR SCT007 OVC060
     FM261500 24004KT 5SM -SHRA BR SCT007 OVC012
      TEMPO 2615/2616 BKN007
     FM261900 28010G17KT P6SM SCT012 OVC020
      TEMPO 2704/2708 BKN012
     FM270800 30008KT P6SM BKN008=

USA.gov is the U.S. government's official web portal to all federal, state and local government web resources and services.